Time;durP1;ratioP1;P1;durP2;ratioP2;P2;SDS_P1;SDS_P2;PMS_P1;PMS_P2;Temp;Humidity;BMP_temperature;BMP_pressure;BME280_temperature;BME280_humidity;BME280_pressure;Samples;Min_cycle;Max_cycle;Signal;HPM_P1;HPM_P2
2022/04/16 00:02:17;;;;;;;21.95;15.85;;;;;;;4.67;100.00;100560.81;5093155;28;20043;-76
2022/04/16 00:04:42;;;;;;;26.40;15.27;;;;;;;4.68;100.00;100559.13;5093069;28;20556;-76
2022/04/16 00:07:08;;;;;;;23.75;13.88;;;;;;;4.68;100.00;100570.28;5093138;28;20053;-75
2022/04/16 00:09:33;;;;;;;23.95;13.00;;;;;;;4.65;100.00;100582.34;5092675;28;20024;-75
2022/04/16 00:11:59;;;;;;;12.73;9.93;;;;;;;4.52;100.00;100570.41;5092957;28;20426;-76
2022/04/16 00:14:24;;;;;;;12.70;10.90;;;;;;;4.56;100.00;100577.25;5092943;28;20097;-76
2022/04/16 00:16:50;;;;;;;17.95;11.32;;;;;;;4.56;100.00;100582.44;5092784;28;20035;-76
2022/04/16 00:19:15;;;;;;;16.48;11.98;;;;;;;4.55;100.00;100585.84;5092660;28;20035;-76
2022/04/16 00:21:40;;;;;;;15.27;11.18;;;;;;;4.43;100.00;100555.84;5093084;28;20036;-76
2022/04/16 00:24:07;;;;;;;15.88;11.02;;;;;;;4.53;100.00;100579.84;5092873;28;20020;-76
2022/04/16 00:26:38;;;;;;;14.50;12.10;;;;;;;4.53;100.00;100587.59;5092591;28;20046;-76
2022/04/16 00:29:04;;;;;;;12.55;9.68;;;;;;;4.45;100.00;100564.44;5092528;28;20103;-76
2022/04/16 00:31:29;;;;;;;13.00;9.98;;;;;;;4.41;100.00;100576.47;5092534;28;20115;-76
2022/04/16 00:33:55;;;;;;;13.20;10.45;;;;;;;4.38;100.00;100573.06;5092783;28;20039;-76
2022/04/16 00:36:21;;;;;;;11.07;9.88;;;;;;;4.37;100.00;100573.94;5092436;28;20115;-75
2022/04/16 00:38:46;;;;;;;11.70;8.90;;;;;;;4.40;100.00;100587.66;5092515;28;20103;-76
2022/04/16 00:41:12;;;;;;;12.73;9.15;;;;;;;4.36;100.00;100580.81;5092632;28;20432;-75
2022/04/16 00:43:38;;;;;;;12.45;9.13;;;;;;;4.38;100.00;100591.13;5092182;28;20048;-76
2022/04/16 00:46:03;;;;;;;11.80;9.52;;;;;;;4.30;100.00;100577.41;5092440;28;20031;-75
2022/04/16 00:48:29;;;;;;;12.65;9.60;;;;;;;4.35;100.00;100586.84;5092072;28;20364;-76
2022/04/16 00:50:56;;;;;;;9.73;8.70;;;;;;;4.33;100.00;100592.88;5092460;28;20058;-75
2022/04/16 00:53:25;;;;;;;13.05;8.63;;;;;;;4.23;100.00;100585.19;5092321;28;20044;-75
2022/04/16 00:55:51;;;;;;;8.77;7.88;;;;;;;4.24;100.00;100596.38;5092194;28;20024;-76
2022/04/16 00:58:17;;;;;;;12.55;8.82;;;;;;;4.20;100.00;100587.78;5091851;28;20028;-76
2022/04/16 01:00:42;;;;;;;10.13;7.97;;;;;;;4.28;100.00;100610.09;5092362;28;20046;-75
2022/04/16 01:03:08;;;;;;;13.75;7.97;;;;;;;4.21;100.00;100597.25;5092530;28;20024;-76
2022/04/16 01:05:35;;;;;;;11.70;8.30;;;;;;;4.27;100.00;100613.56;5091665;28;20047;-76
2022/04/16 01:08:02;;;;;;;10.02;7.97;;;;;;;4.14;100.00;100599.88;5092151;28;20038;-76
2022/04/16 01:10:33;;;;;;;11.95;8.20;;;;;;;4.20;100.00;100615.28;5091024;28;20025;-75
2022/04/16 01:13:04;;;;;;;11.75;7.63;;;;;;;4.09;100.00;100604.16;5091926;28;20032;-76
2022/04/16 01:15:29;;;;;;;8.95;7.05;;;;;;;4.08;100.00;100610.19;5091717;28;20406;-76
2022/04/16 01:17:56;;;;;;;14.48;7.82;;;;;;;4.13;100.00;100613.59;5092187;28;20036;-76
2022/04/16 01:20:22;;;;;;;15.15;7.70;;;;;;;4.13;100.00;100635.13;5091654;28;20498;-76
2022/04/16 01:22:50;;;;;;;10.70;7.85;;;;;;;4.02;100.00;100621.41;5091918;28;20059;-76
2022/04/16 01:25:19;;;;;;;9.70;6.85;;;;;;;4.00;100.00;100617.97;5091844;28;20028;-75
2022/04/16 01:27:45;;;;;;;8.68;5.43;;;;;;;4.07;100.00;100642.84;5092135;28;20035;-76
2022/04/16 01:30:12;;;;;;;6.55;5.10;;;;;;;3.95;100.00;100624.84;5092052;28;20028;-76
2022/04/16 01:32:37;;;;;;;7.15;4.97;;;;;;;3.97;100.00;100641.19;5091481;28;20035;-76
2022/04/16 01:35:07;;;;;;;8.75;5.00;;;;;;;3.96;100.00;100647.19;5091826;28;20035;-75
2022/04/16 01:37:37;;;;;;;6.57;5.18;;;;;;;3.84;100.00;100639.53;5091542;28;20052;-75
2022/04/16 01:40:05;;;;;;;7.15;5.20;;;;;;;3.85;100.00;100662.69;5091553;28;20491;-75
2022/04/16 01:42:32;;;;;;;6.18;5.38;;;;;;;3.75;100.00;100651.56;5091597;28;20036;-76
2022/04/16 01:45:01;;;;;;;6.95;5.07;;;;;;;3.69;100.00;100651.56;5091560;28;20545;-75
2022/04/16 01:47:27;;;;;;;9.13;4.85;;;;;;;3.72;100.00;100668.75;5073455;28;20563;-76
2022/04/16 01:49:54;;;;;;;8.45;5.40;;;;;;;3.74;100.00;100670.44;5091678;28;20032;-76
2022/04/16 01:52:19;;;;;;;7.90;6.07;;;;;;;3.69;100.00;100663.59;5091202;28;20475;-75
2022/04/16 01:54:45;;;;;;;8.13;5.03;;;;;;;3.65;100.00;100665.31;5092001;28;20064;-76
2022/04/16 01:57:10;;;;;;;9.90;5.38;;;;;;;3.63;100.00;100672.22;5091891;28;20459;-77
2022/04/16 01:59:35;;;;;;;5.95;5.07;;;;;;;3.62;100.00;100672.19;5091621;28;20490;-76
2022/04/16 02:02:01;;;;;;;7.13;4.78;;;;;;;3.60;100.00;100685.09;5091628;28;20036;-76
2022/04/16 02:04:26;;;;;;;6.07;5.05;;;;;;;3.60;100.00;100686.81;5091390;28;20024;-76
2022/04/16 02:06:52;;;;;;;6.57;4.60;;;;;;;3.53;100.00;100685.94;5091459;28;20028;-76
2022/04/16 02:09:18;;;;;;;9.90;4.80;;;;;;;3.50;100.00;100673.94;5091238;28;20493;-76
2022/04/16 02:11:43;;;;;;;11.30;4.93;;;;;;;3.56;100.00;100688.53;5091414;28;20086;-76
2022/04/16 02:14:09;;;;;;;6.38;4.63;;;;;;;3.50;100.00;100684.25;5091875;28;20411;-76
2022/04/16 02:16:35;;;;;;;7.68;5.03;;;;;;;3.47;100.00;100684.25;5091333;28;20039;-76
2022/04/16 02:19:00;;;;;;;7.60;6.00;;;;;;;3.47;100.00;100689.41;5091371;28;20081;-76
2022/04/16 02:21:27;;;;;;;7.35;5.70;;;;;;;3.42;100.00;100677.41;5092970;28;20028;-76
2022/04/16 02:23:53;;;;;;;8.13;4.40;;;;;;;3.45;100.00;100693.69;5094992;28;20172;-76
2022/04/16 02:26:20;;;;;;;10.32;5.78;;;;;;;3.38;100.00;100681.69;5095170;28;20024;-76
2022/04/16 02:28:48;;;;;;;8.45;5.63;;;;;;;3.40;100.00;100685.09;5094798;28;20057;-76
2022/04/16 02:31:13;;;;;;;9.50;5.18;;;;;;;3.43;100.00;100686.81;5094976;28;20301;-76
2022/04/16 02:33:39;;;;;;;6.97;5.03;;;;;;;3.43;100.00;100685.09;5094718;28;20048;-76
2022/04/16 02:36:05;;;;;;;6.65;4.28;;;;;;;3.34;100.00;100685.13;5094819;28;20028;-76
2022/04/16 02:38:30;;;;;;;5.28;4.35;;;;;;;3.34;100.00;100690.28;5094413;28;20384;-76
2022/04/16 02:40:56;;;;;;;7.22;4.30;;;;;;;3.32;100.00;100691.97;5094717;28;20032;-76
2022/04/16 02:43:21;;;;;;;9.52;4.63;;;;;;;3.42;100.00;100704.00;5094856;28;20028;-76
2022/04/16 02:48:33;;;;;;;8.60;4.35;;;;;;;3.38;100.00;100701.44;5094651;28;20061;-75
2022/04/16 02:50:58;;;;;;;7.53;4.75;;;;;;;3.33;100.00;100711.75;5094499;28;20028;-75
2022/04/16 02:53:26;;;;;;;5.75;4.00;;;;;;;3.23;100.00;100702.28;5094347;28;20491;-76
2022/04/16 02:55:55;;;;;;;5.55;4.00;;;;;;;3.31;100.00;100713.44;5094523;28;20027;-75
2022/04/16 02:58:21;;;;;;;8.85;4.45;;;;;;;3.29;100.00;100711.72;5094334;28;20036;-75
2022/04/16 03:00:47;;;;;;;6.13;3.92;;;;;;;3.23;100.00;100697.97;5094130;28;20414;-76
2022/04/16 03:03:12;;;;;;;7.18;4.68;;;;;;;3.26;100.00;100707.44;5094267;28;20028;-76
2022/04/16 03:05:37;;;;;;;7.80;4.35;;;;;;;3.25;100.00;100704.00;5094008;28;20042;-76
2022/04/16 03:08:06;;;;;;;4.75;4.20;;;;;;;3.22;100.00;100709.16;5094555;28;20028;-76
2022/04/16 03:10:31;;;;;;;11.07;4.07;;;;;;;3.22;100.00;100703.16;5094185;28;20425;-76
2022/04/16 03:12:57;;;;;;;8.63;4.43;;;;;;;3.25;100.00;100716.88;5094242;28;20035;-76
2022/04/16 03:18:07;;;;;;;7.95;4.20;;;;;;;3.17;100.00;100713.44;5094323;28;20047;-76
2022/04/16 03:20:33;;;;;;;6.10;4.05;;;;;;;3.12;100.00;100712.59;5093858;28;20082;-76
2022/04/16 03:22:59;;;;;;;7.72;4.22;;;;;;;3.08;100.00;100712.59;5094113;28;20103;-76
2022/04/16 03:25:27;;;;;;;6.28;4.18;;;;;;;3.10;100.00;100723.72;5093727;28;20096;-76
2022/04/16 03:27:53;;;;;;;8.65;4.22;;;;;;;3.05;100.00;100723.72;5093788;28;20471;-76
2022/04/16 03:30:19;;;;;;;11.55;5.93;;;;;;;2.93;100.00;100714.25;5093718;28;20074;-76
2022/04/16 03:32:47;;;;;;;6.57;4.63;;;;;;;3.01;100.00;100724.56;5093003;28;20463;-76
2022/04/16 03:35:12;;;;;;;10.82;5.50;;;;;;;2.95;100.00;100714.25;5093863;28;20531;-76
2022/04/16 03:37:38;;;;;;;7.20;4.65;;;;;;;2.96;100.00;100726.28;5093459;28;20122;-75
2022/04/16 03:40:04;;;;;;;10.20;5.43;;;;;;;2.91;100.00;100730.56;5093549;28;20107;-75
2022/04/16 03:42:31;;;;;;;7.85;4.93;;;;;;;2.85;100.00;100722.81;5093277;28;20024;-75
2022/04/16 03:44:58;;;;;;;10.35;5.90;;;;;;;2.80;100.00;100727.97;5093388;28;20032;-76
2022/04/16 03:47:23;;;;;;;7.82;5.10;;;;;;;2.73;100.00;100708.22;5093690;28;20028;-75
2022/04/16 03:49:48;;;;;;;9.75;6.18;;;;;;;2.80;100.00;100735.69;5093368;28;20451;-76
2022/04/16 03:52:14;;;;;;;7.72;5.90;;;;;;;2.72;100.00;100709.06;5093313;28;20419;-75
2022/04/16 04:00:08;;;;;;;7.78;4.75;;;;;;;2.86;100.00;100747.69;5093245;28;20062;-76
2022/04/16 04:02:36;;;;;;;6.82;4.45;;;;;;;2.78;100.00;100729.66;5093006;28;20028;-76
2022/04/16 04:05:03;;;;;;;8.65;4.90;;;;;;;2.86;100.00;100750.28;5093295;28;20030;-76
2022/04/16 04:07:29;;;;;;;7.88;4.60;;;;;;;2.81;100.00;100739.97;5092808;28;20028;-75
2022/04/16 04:09:54;;;;;;;6.78;4.55;;;;;;;2.79;100.00;100745.97;5092907;28;20332;-76
2022/04/16 04:12:20;;;;;;;10.60;5.03;;;;;;;2.83;100.00;100761.44;5093140;28;20032;-75
2022/04/16 04:14:46;;;;;;;10.23;4.70;;;;;;;2.86;100.00;100763.13;5092883;28;20067;-75
2022/04/16 04:17:13;;;;;;;7.15;4.25;;;;;;;2.80;100.00;100752.84;5093046;28;20028;-76
2022/04/16 04:19:43;;;;;;;7.88;5.07;;;;;;;2.90;100.00;100767.44;5092567;28;20460;-75
2022/04/16 04:22:10;;;;;;;5.72;4.30;;;;;;;2.91;100.00;100775.19;5092909;28;20035;-75
2022/04/16 04:24:38;;;;;;;10.75;5.10;;;;;;;2.90;100.00;100773.44;5092832;28;20031;-76
2022/04/16 04:27:03;;;;;;;6.15;4.70;;;;;;;2.90;100.00;100778.59;5092837;28;20024;-76
2022/04/16 04:29:30;;;;;;;6.30;4.22;;;;;;;2.88;100.00;100776.88;5092228;28;20490;-75
2022/04/16 04:31:56;;;;;;;5.82;4.25;;;;;;;2.90;100.00;100783.72;5092878;28;20039;-75
2022/04/16 04:34:24;;;;;;;6.47;4.30;;;;;;;3.01;100.00;100804.34;5092669;28;20028;-75
2022/04/16 04:36:49;;;;;;;7.38;4.47;;;;;;;2.90;100.00;100793.16;5092241;28;20510;-76
2022/04/16 04:39:15;;;;;;;6.88;4.28;;;;;;;2.92;100.00;100792.31;5092365;28;20020;-76
2022/04/16 04:41:44;;;;;;;7.18;4.38;;;;;;;2.98;100.00;100810.34;5092426;28;20031;-76
2022/04/16 04:44:11;;;;;;;5.82;4.53;;;;;;;2.89;100.00;100802.59;5091620;28;20024;-75
2022/04/16 04:46:37;;;;;;;5.85;4.15;;;;;;;2.86;100.00;100799.16;5092145;28;20039;-76
2022/04/16 04:49:02;;;;;;;9.00;4.40;;;;;;;2.90;100.00;100827.47;5040224;28;20067;-75
2022/04/16 04:51:28;;;;;;;6.28;4.32;;;;;;;2.84;100.00;100819.75;5092321;28;20104;-76
2022/04/16 04:53:53;;;;;;;8.48;4.47;;;;;;;2.87;100.00;100826.63;5091999;28;20040;-75
2022/04/16 04:56:18;;;;;;;7.28;4.35;;;;;;;2.91;100.00;100836.94;5092396;28;20062;-75
2022/04/16 04:58:44;;;;;;;9.50;4.93;;;;;;;2.87;100.00;100824.06;5091903;28;20051;-76
2022/04/16 05:01:09;;;;;;;7.57;4.55;;;;;;;2.84;100.00;100827.47;5092223;28;20031;-76
2022/04/16 05:03:35;;;;;;;5.90;4.53;;;;;;;2.88;100.00;100836.06;5091947;28;20028;-76
2022/04/16 05:06:00;;;;;;;7.10;4.65;;;;;;;2.83;100.00;100835.19;5092155;28;20024;-76
2022/04/16 05:08:25;;;;;;;7.72;4.90;;;;;;;2.84;100.00;100842.03;5091910;28;20020;-75
2022/04/16 05:10:51;;;;;;;9.75;5.43;;;;;;;2.80;100.00;100841.16;5091931;28;20020;-75
2022/04/16 05:13:16;;;;;;;8.18;5.30;;;;;;;2.81;100.00;100835.16;5092195;28;20093;-75
2022/04/16 05:15:42;;;;;;;11.25;5.85;;;;;;;2.90;100.00;100860.06;5091932;28;20401;-76
2022/04/16 05:18:07;;;;;;;8.40;5.13;;;;;;;2.78;100.00;100853.16;5091973;28;20035;-76
2022/04/16 05:20:32;;;;;;;8.07;4.35;;;;;;;2.84;100.00;100862.63;5091674;28;20024;-76
2022/04/16 05:22:58;;;;;;;8.23;4.57;;;;;;;2.72;100.00;100861.72;5092019;28;20361;-76
2022/04/16 05:25:23;;;;;;;6.57;4.60;;;;;;;2.79;100.00;100867.75;5092056;28;20024;-75
2022/04/16 05:27:48;;;;;;;7.40;4.32;;;;;;;2.77;100.00;100866.03;5091775;28;20395;-76
2022/04/16 05:30:21;;;;;;;7.65;5.30;;;;;;;2.76;100.00;100870.31;5091953;28;20032;-76
2022/04/16 05:32:47;;;;;;;8.90;5.45;;;;;;;2.88;100.00;100885.81;5091708;28;20073;-76
2022/04/16 05:35:13;;;;;;;5.90;4.18;;;;;;;2.82;100.00;100867.75;5091939;28;20024;-76
2022/04/16 05:37:38;;;;;;;4.88;4.40;;;;;;;2.92;100.00;100897.84;5091629;28;20056;-76
2022/04/16 05:40:04;;;;;;;7.57;5.53;;;;;;;2.88;100.00;100884.94;5091904;28;20020;-76
2022/04/16 05:42:30;;;;;;;7.45;5.18;;;;;;;2.91;100.00;100900.41;5092049;28;20032;-76
2022/04/16 05:45:00;;;;;;;10.18;5.05;;;;;;;3.00;100.00;100903.88;5091549;28;20070;-73
2022/04/16 05:47:26;;;;;;;8.43;6.10;;;;;;;2.91;100.00;100877.25;5091720;28;20025;-74
2022/04/16 05:49:51;;;;;;;7.90;5.32;;;;;;;3.07;100.00;100902.16;5091431;28;20364;-74
2022/04/16 05:52:18;;;;;;;8.68;5.20;;;;;;;3.12;100.00;100899.63;5091460;28;20028;-74
2022/04/16 05:54:44;;;;;;;8.38;5.65;;;;;;;3.11;100.00;100892.75;5091493;28;20077;-74
2022/04/16 05:57:09;;;;;;;6.40;5.47;;;;;;;3.17;100.00;100908.25;5094890;28;20020;-73
2022/04/16 05:59:35;;;;;;;6.93;6.10;;;;;;;3.14;100.00;100895.34;5095392;28;20027;-74
2022/04/16 06:02:01;;;;;;;14.98;7.00;;;;;;;3.16;100.00;100898.78;5095539;28;20059;-74
2022/04/16 06:04:26;;;;;;;14.00;7.57;;;;;;;3.15;100.00;100887.63;5095729;28;20520;-76
2022/04/16 06:06:51;;;;;;;13.02;7.47;;;;;;;3.18;100.00;100889.34;5095070;28;20483;-76
2022/04/16 06:09:17;;;;;;;11.60;6.57;;;;;;;3.26;100.00;100900.53;5095202;28;20024;-76
2022/04/16 06:11:42;;;;;;;9.52;6.75;;;;;;;3.13;100.00;100879.03;5095497;28;20073;-76
2022/04/16 06:14:08;;;;;;;10.73;7.53;;;;;;;3.29;100.00;100909.97;5095242;28;20028;-76
2022/04/16 06:16:33;;;;;;;11.30;7.60;;;;;;;3.34;100.00;100910.88;5095535;28;20039;-76
2022/04/16 06:18:59;;;;;;;10.45;7.07;;;;;;;3.21;100.00;100902.25;5095034;28;20496;-76
2022/04/16 06:21:24;;;;;;;8.48;6.95;;;;;;;3.16;100.00;100891.03;5095077;28;20032;-75
2022/04/16 06:23:51;;;;;;;7.80;7.00;;;;;;;3.36;100.00;100929.75;5095026;28;20024;-75
2022/04/16 06:26:17;;;;;;;7.93;6.70;;;;;;;3.35;100.00;100913.44;5094984;28;20032;-76
2022/04/16 06:28:42;;;;;;;11.98;6.15;;;;;;;3.33;100.00;100897.13;5094791;28;20032;-75
2022/04/16 06:31:07;;;;;;;13.38;6.10;;;;;;;3.52;100.00;100918.63;5095180;28;20456;-76
2022/04/16 06:33:33;;;;;;;9.63;7.72;;;;;;;3.68;100.00;100928.13;5095049;28;20043;-76
2022/04/16 06:35:58;;;;;;;9.25;7.10;;;;;;;3.62;100.00;100916.94;5094689;28;20058;-76
2022/04/16 06:38:23;;;;;;;10.43;6.15;;;;;;;3.60;100.00;100928.97;5094771;28;20434;-76
2022/04/16 06:40:49;;;;;;;10.68;7.00;;;;;;;3.66;100.00;100934.13;5094576;28;20042;-75
2022/04/16 06:43:14;;;;;;;9.05;7.55;;;;;;;3.67;100.00;100933.28;5094750;28;20039;-76
2022/04/16 06:45:40;;;;;;;10.50;7.63;;;;;;;3.61;100.00;100920.38;5094413;28;20027;-75
2022/04/16 06:48:05;;;;;;;8.93;7.18;;;;;;;3.58;100.00;100917.78;5094672;28;20028;-76
2022/04/16 06:50:31;;;;;;;10.68;7.90;;;;;;;3.71;100.00;100930.72;5094427;28;20035;-76
2022/04/16 06:52:56;;;;;;;11.73;7.88;;;;;;;3.72;100.00;100916.97;5094253;28;20127;-75
2022/04/16 06:55:21;;;;;;;11.35;8.40;;;;;;;3.87;100.00;100948.75;5094635;28;20093;-75
2022/04/16 06:57:47;;;;;;;16.10;10.15;;;;;;;3.84;100.00;100939.31;5094037;28;20028;-75
2022/04/16 07:00:13;;;;;;;21.73;11.38;;;;;;;3.77;100.00;100934.16;5094402;28;20035;-75
2022/04/16 07:02:39;;;;;;;12.45;9.45;;;;;;;3.85;100.00;100945.34;5094165;28;20067;-75
2022/04/16 07:05:05;;;;;;;17.92;10.50;;;;;;;4.04;100.00;100946.19;5094093;28;20058;-75
2022/04/16 07:07:31;;;;;;;8.93;7.38;;;;;;;4.04;100.00;100936.75;5093082;28;20028;-75
2022/04/16 07:09:57;;;;;;;18.13;11.27;;;;;;;4.03;100.00;100940.19;5093880;28;20467;-76
2022/04/16 07:12:22;;;;;;;14.55;9.75;;;;;;;4.10;100.00;100951.38;5093733;28;20475;-75
2022/04/16 07:14:48;;;;;;;18.23;11.35;;;;;;;4.09;100.00;100958.25;5093782;28;20491;-76
2022/04/16 07:17:13;;;;;;;9.98;8.57;;;;;;;4.06;100.00;100955.66;5094081;28;20046;-76
2022/04/16 07:19:39;;;;;;;12.60;8.50;;;;;;;4.05;100.00;100951.38;5093721;28;20024;-75
2022/04/16 07:22:05;;;;;;;10.10;7.97;;;;;;;4.01;100.00;100944.50;5093772;28;20119;-75
2022/04/16 07:24:30;;;;;;;8.75;7.05;;;;;;;4.04;100.00;100951.34;5094043;28;20537;-76
2022/04/16 07:26:56;;;;;;;9.65;7.80;;;;;;;4.32;100.00;100957.41;5093476;28;20130;-76
2022/04/16 07:29:22;;;;;;;8.85;7.45;;;;;;;4.68;100.00;100952.22;5093753;28;20054;-75
2022/04/16 07:31:47;;;;;;;9.02;8.07;;;;;;;5.11;100.00;100964.16;5093462;28;20110;-75
2022/04/16 07:34:13;;;;;;;8.90;7.20;;;;;;;5.79;100.00;100962.13;5093558;28;20054;-75
2022/04/16 07:36:39;;;;;;;8.65;6.95;;;;;;;6.54;100.00;100967.63;5093749;28;20075;-79
2022/04/16 07:39:04;;;;;;;9.65;7.05;;;;;;;9.04;88.43;100951.13;5093363;28;20488;-77
2022/04/16 07:41:29;;;;;;;8.45;6.88;;;;;;;9.31;84.00;100947.09;5093580;28;20074;-79
2022/04/16 07:43:55;;;;;;;10.32;6.38;;;;;;;8.84;85.36;100957.56;5093263;28;20028;-79
2022/04/16 07:46:22;;;;;;;8.23;6.25;;;;;;;7.86;85.32;100953.09;5093337;28;20476;-76
2022/04/16 07:48:48;;;;;;;9.40;6.38;;;;;;;7.16;88.40;100963.53;5093051;28;20123;-84
2022/04/16 07:51:13;;;;;;;9.95;6.38;;;;;;;6.64;90.43;100970.97;5075342;28;20111;-79
2022/04/16 07:53:39;;;;;;;10.07;6.88;;;;;;;6.25;92.21;100965.28;5092870;28;20044;-81
2022/04/16 07:56:04;;;;;;;7.57;5.53;;;;;;;6.03;93.32;100981.84;5092955;28;20040;-76
2022/04/16 07:58:29;;;;;;;10.65;6.45;;;;;;;6.54;92.19;100959.84;5093022;28;20073;-78
2022/04/16 08:00:55;;;;;;;12.68;7.57;;;;;;;6.86;91.79;100980.25;5092971;28;20376;-78
2022/04/16 08:03:20;;;;;;;11.00;7.47;;;;;;;7.03;88.96;100956.75;5092940;28;20036;-78
2022/04/16 08:05:46;;;;;;;6.07;5.25;;;;;;;9.48;82.08;100966.69;5074788;28;20034;-78
2022/04/16 08:08:13;;;;;;;7.57;5.60;;;;;;;10.96;75.02;100971.84;5093114;28;20031;-78
2022/04/16 08:10:38;;;;;;;8.13;6.18;;;;;;;10.40;75.58;100966.34;5093233;28;20028;-78
2022/04/16 08:13:05;;;;;;;6.60;5.82;;;;;;;9.21;77.73;100988.91;5091980;28;20425;-78
2022/04/16 08:15:31;;;;;;;8.50;5.63;;;;;;;8.17;80.86;100989.81;5092770;28;20047;-77
2022/04/16 08:17:56;;;;;;;8.98;5.93;;;;;;;7.43;84.12;100980.47;5092446;28;20020;-78
2022/04/16 08:20:22;;;;;;;6.55;5.85;;;;;;;7.34;84.44;100987.50;5092567;28;20024;-77
2022/04/16 08:22:48;;;;;;;7.35;5.57;;;;;;;7.11;86.35;100995.53;5092562;28;20028;-77
2022/04/16 08:27:49;;;;;;;8.13;6.18;;;;;;;7.60;85.40;100992.38;5081047;28;20043;-78
2022/04/16 08:30:16;;;;;;;7.40;5.72;;;;;;;7.50;84.19;101004.59;5071879;28;20037;-79
2022/04/16 08:32:42;;;;;;;8.77;5.50;;;;;;;7.68;84.35;100998.31;5072134;28;20503;-77
2022/04/16 08:35:13;;;;;;;8.60;6.03;;;;;;;7.85;84.60;100993.75;5071841;28;20029;-76
2022/04/16 08:37:38;;;;;;;8.43;5.97;;;;;;;7.67;82.32;100997.47;5072165;28;20518;-75
2022/04/16 08:40:05;;;;;;;7.15;5.05;;;;;;;7.46;82.00;100988.22;5071757;28;20028;-76
2022/04/16 08:42:32;;;;;;;6.55;5.07;;;;;;;7.25;83.93;100985.88;5071973;28;20112;-78
2022/04/16 08:44:58;;;;;;;7.07;5.70;;;;;;;7.42;84.58;100981.34;5071640;28;20051;-79
2022/04/16 08:47:23;;;;;;;6.00;4.80;;;;;;;7.62;82.47;101006.16;5072424;28;20025;-81
2022/04/16 08:49:49;;;;;;;6.03;5.43;;;;;;;7.25;81.03;100986.75;5054005;28;20029;-78
2022/04/16 08:52:16;;;;;;;6.72;5.28;;;;;;;7.46;81.13;100985.63;5054116;28;20111;-78
2022/04/16 08:54:42;;;;;;;9.20;7.20;;;;;;;7.78;80.33;100991.25;5071672;28;20053;-78
2022/04/16 08:57:09;;;;;;;12.50;9.27;;;;;;;8.00;79.05;100980.53;5071499;28;20044;-78
2022/04/16 08:59:34;;;;;;;13.88;7.90;;;;;;;7.90;78.47;100991.94;5071590;28;20480;-78
2022/04/16 09:02:00;;;;;;;17.52;8.25;;;;;;;7.84;78.80;100989.44;5071989;28;20032;-78
2022/04/16 09:04:31;;;;;;;21.95;8.45;;;;;;;7.89;78.18;100994.56;5071935;28;20029;-79
2022/04/16 09:06:56;;;;;;;17.92;8.43;;;;;;;7.86;78.49;101007.56;5071606;28;20043;-78
2022/04/16 09:09:22;;;;;;;14.13;8.70;;;;;;;7.74;79.35;101000.81;5053705;28;20036;-77
2022/04/16 09:11:50;;;;;;;17.10;8.02;;;;;;;7.93;79.30;101004.03;5071299;28;20033;-78
2022/04/16 09:14:16;;;;;;;12.30;6.43;;;;;;;8.02;78.40;100992.66;5071504;28;20024;-78
2022/04/16 09:16:42;;;;;;;12.20;6.53;;;;;;;8.00;76.97;101003.88;5071763;28;20052;-78
2022/04/16 09:24:02;;;;;;;34.80;16.45;;;;;;;7.81;78.42;101002.47;5083143;28;20051;-78
2022/04/16 09:26:32;;;;;;;12.88;8.35;;;;;;;8.12;79.46;101013.25;5087495;28;20016;-78
2022/04/16 09:29:07;;;;;;;22.60;12.87;;;;;;;8.06;75.27;101020.28;5061117;28;20033;-80
2022/04/16 09:31:34;;;;;;;9.82;7.35;;;;;;;7.88;76.15;101019.66;5073619;28;20032;-78
2022/04/16 09:34:00;;;;;;;10.70;6.97;;;;;;;7.86;77.46;101012.75;5075570;28;20025;-74
2022/04/16 09:36:26;;;;;;;10.88;6.45;;;;;;;8.20;76.95;101010.53;5078739;28;20023;-73
2022/04/16 09:39:04;;;;;;;7.32;5.05;;;;;;;8.12;74.14;101010.66;5095094;28;20031;-73
2022/04/16 09:41:30;;;;;;;7.30;5.45;;;;;;;7.97;75.07;101022.13;5095241;28;20043;-78
2022/04/16 09:43:56;;;;;;;9.48;5.03;;;;;;;7.78;75.29;101024.97;5077351;28;20032;-77
2022/04/16 09:46:26;;;;;;;6.70;3.90;;;;;;;7.75;75.18;101018.06;5095204;28;20032;-74
2022/04/16 09:48:55;;;;;;;5.03;3.70;;;;;;;7.74;74.49;101029.34;5095748;28;20027;-78
2022/04/16 09:51:24;;;;;;;5.63;4.05;;;;;;;7.80;74.16;101013.72;5094931;28;20090;-76
2022/04/16 09:53:52;;;;;;;25.63;15.38;;;;;;;7.87;75.89;101011.88;5088907;28;20114;-77
2022/04/16 09:56:20;;;;;;;8.02;5.07;;;;;;;7.86;73.56;101024.00;5074998;28;20492;-76
2022/04/16 09:58:52;;;;;;;9.95;5.30;;;;;;;7.90;75.26;101030.84;5075029;28;20028;-77
2022/04/16 10:01:21;;;;;;;6.35;4.43;;;;;;;7.94;75.75;101014.38;5075054;28;20100;-76
2022/04/16 10:03:47;;;;;;;9.57;4.25;;;;;;;8.09;77.01;101026.28;5075030;28;20052;-76
2022/04/16 10:06:13;;;;;;;9.35;4.25;;;;;;;8.51;76.20;101029.13;5074886;28;20069;-76
2022/04/16 10:08:40;;;;;;;5.55;4.30;;;;;;;8.34;73.51;101031.09;5074948;28;20142;-76
2022/04/16 10:11:07;;;;;;;9.55;5.53;;;;;;;7.87;73.90;101030.88;5074852;28;20103;-76
2022/04/16 10:13:40;;;;;;;6.95;4.22;;;;;;;7.72;74.22;101037.16;5074567;28;20078;-75
2022/04/16 10:16:19;;;;;;;8.05;5.30;;;;;;;7.98;75.56;101047.19;5074806;28;20017;-75
2022/04/16 10:18:45;;;;;;;7.13;5.07;;;;;;;8.15;74.06;101044.34;5074322;28;20028;-76
2022/04/16 10:21:15;;;;;;;6.53;4.15;;;;;;;8.10;73.88;101024.53;5074823;28;20025;-76
2022/04/16 10:23:41;;;;;;;4.93;4.43;;;;;;;8.15;73.98;101030.53;5074472;28;20063;-76
2022/04/16 10:26:10;;;;;;;16.08;9.85;;;;;;;8.26;75.49;101023.44;5074979;28;20142;-76
2022/04/16 10:28:53;;;;;;;7.55;5.80;;;;;;;8.53;75.13;101037.75;5074448;28;20036;-76
2022/04/16 10:31:28;;;;;;;7.88;5.85;;;;;;;8.55;73.80;101043.75;5074488;28;20075;-76
2022/04/16 10:34:07;;;;;;;8.20;5.80;;;;;;;8.64;74.61;101040.19;5074503;28;20032;-75
2022/04/16 10:36:38;;;;;;;7.18;5.55;;;;;;;8.58;75.06;101045.47;5074150;28;20029;-75
2022/04/16 10:39:17;;;;;;;6.97;5.40;;;;;;;8.43;76.03;101047.44;5074238;28;20036;-75
2022/04/16 10:42:11;;;;;;;4.75;4.28;;;;;;;8.77;74.11;101041.69;5073707;28;20029;-75
2022/04/16 10:44:46;;;;;;;8.68;5.22;;;;;;;9.02;73.32;101047.31;4972810;28;20162;-76
2022/04/16 10:47:16;;;;;;;9.82;5.95;;;;;;;9.14;73.34;101028.91;4973128;28;20041;-75
2022/04/16 10:49:43;;;;;;;5.85;4.72;;;;;;;9.09;70.91;101046.31;4972852;28;20061;-75
2022/04/16 10:52:19;;;;;;;6.78;4.97;;;;;;;8.88;71.52;101052.75;4972845;28;20062;-75
2022/04/16 10:54:47;;;;;;;6.30;5.50;;;;;;;8.79;72.38;101044.25;4983746;28;20078;-76
2022/04/16 10:57:21;;;;;;;6.47;5.28;;;;;;;8.58;72.82;101051.50;4978836;28;20023;-76
2022/04/16 10:59:46;;;;;;;6.10;4.95;;;;;;;8.43;72.03;101059.56;4991825;28;20488;-76
2022/04/16 11:02:25;;;;;;;7.72;4.88;;;;;;;8.38;72.52;101061.34;4980296;28;20031;-75
2022/04/16 11:04:57;;;;;;;7.43;6.10;;;;;;;8.52;76.12;101061.16;4972865;28;20035;-75
2022/04/16 11:07:24;;;;;;;6.07;5.00;;;;;;;8.55;72.31;101069.72;4972731;28;20046;-77
2022/04/16 11:09:53;;;;;;;6.18;5.10;;;;;;;8.56;69.90;101057.63;4976896;28;20026;-76
2022/04/16 11:12:20;;;;;;;9.32;7.50;;;;;;;8.61;70.22;101054.06;4992119;28;20093;-75
2022/04/16 11:14:49;;;;;;;5.45;4.95;;;;;;;8.65;71.50;101070.47;4991683;28;20134;-75
2022/04/16 11:17:14;;;;;;;7.57;5.95;;;;;;;8.75;72.60;101057.28;4979961;28;20062;-75
2022/04/16 11:19:39;;;;;;;8.30;6.00;;;;;;;8.88;72.11;101073.53;4986960;28;20061;-76
2022/04/16 11:22:05;;;;;;;7.55;5.60;;;;;;;8.64;69.73;101076.56;5067521;28;20079;-74
2022/04/16 11:24:31;;;;;;;6.75;5.40;;;;;;;8.53;69.55;101070.66;5082618;28;20024;-75
2022/04/16 11:35:13;;;;;;;8.40;6.63;;;;;;;9.25;68.69;101076.34;5073200;28;20067;-80
2022/04/16 11:37:38;;;;;;;11.95;9.68;;;;;;;8.77;68.37;101085.84;5073899;28;20103;-88
2022/04/16 11:40:05;;;;;;;7.80;6.97;;;;;;;8.56;70.72;101073.22;5056234;28;20028;-86
2022/04/16 11:42:31;;;;;;;9.93;7.60;;;;;;;8.65;71.23;101068.72;5057637;28;20031;-89
2022/04/16 11:44:57;;;;;;;5.22;4.72;;;;;;;8.70;67.74;101058.25;5057203;28;20029;-92
2022/04/16 11:47:25;;;;;;;20.10;12.25;;;;;;;8.86;69.08;101064.91;5057056;28;20464;-83
2022/04/16 11:49:53;;;;;;;7.53;4.82;;;;;;;9.08;69.21;101085.34;5073554;28;20056;-85